Time;durP1;ratioP1;P1;durP2;ratioP2;P2;SDS_P1;SDS_P2;PMS_P1;PMS_P2;Temp;Humidity;BMP_temperature;BMP_pressure;BME280_temperature;BME280_humidity;BME280_pressure;Samples;Min_cycle;Max_cycle;Signal;HPM_P1;HPM_P2
2024/01/27 00:00:51;;;;;;;4.40;2.10;;;;;;;3.69;100.00;96920.38;108280;1283;138363;-86
2024/01/27 00:04:38;;;;;;;3.30;1.80;;;;;;;3.64;100.00;96923.36;108503;1282;138355;-86
2024/01/27 00:08:08;;;;;;;5.20;2.00;;;;;;;3.60;100.00;96926.96;108515;1282;22531;-86
2024/01/27 00:11:35;;;;;;;3.00;1.70;;;;;;;3.57;100.00;96941.90;108505;1279;138525;-87
2024/01/27 00:15:02;;;;;;;4.20;1.60;;;;;;;3.52;100.00;96975.27;108533;1282;22571;-87
2024/01/27 00:18:30;;;;;;;3.40;1.70;;;;;;;3.47;100.00;96982.15;108299;1276;138026;-87
2024/01/27 00:21:58;;;;;;;6.30;2.70;;;;;;;3.42;100.00;96986.27;108507;1279;22570;-86
2024/01/27 00:25:27;;;;;;;7.00;1.80;;;;;;;3.32;100.00;97006.14;108563;1282;22527;-87
2024/01/27 00:28:54;;;;;;;4.10;1.40;;;;;;;3.24;100.00;97007.56;108534;1280;138589;-85
2024/01/27 00:32:14;;;;;;;6.40;2.40;;;;;;;3.20;100.00;97003.80;108726;1276;22555;-86
2024/01/27 00:35:41;;;;;;;3.80;1.80;;;;;;;3.17;100.00;97013.83;108412;1282;138030;-86
2024/01/27 00:39:10;;;;;;;5.20;2.20;;;;;;;3.16;100.00;97027.05;108487;1276;22624;-87
2024/01/27 00:42:36;;;;;;;7.70;2.10;;;;;;;3.15;100.00;97025.09;108434;1275;137115;-86
2024/01/27 00:46:04;;;;;;;5.50;2.80;;;;;;;3.15;100.00;97034.20;108468;1279;26454;-87
2024/01/27 00:49:23;;;;;;;;;;;;;;;;;;;;;
2024/01/27 00:52:51;;;;;;;6.50;2.30;;;;;;;3.12;100.00;97039.05;108362;1283;138843;-86
2024/01/27 00:56:28;;;;;;;;;;;;;;;;;;;;;
2024/01/27 00:59:51;;;;;;;3.70;1.30;;;;;;;3.11;100.00;97043.09;108339;1282;138523;-87
2024/01/27 01:03:27;;;;;;;5.40;2.10;;;;;;;3.07;100.00;97037.70;108586;1282;24358;-87
2024/01/27 01:06:55;;;;;;;4.10;2.80;;;;;;;3.04;100.00;97044.48;108429;1277;138783;-86
2024/01/27 01:10:23;;;;;;;5.80;2.30;;;;;;;3.02;100.00;97049.23;108613;1275;24219;-86
2024/01/27 01:13:50;;;;;;;5.50;2.40;;;;;;;3.00;100.00;97048.31;108596;1282;22540;-87
2024/01/27 01:17:18;;;;;;;5.10;3.10;;;;;;;2.99;100.00;97048.98;108390;1283;138418;-86
2024/01/27 01:20:45;;;;;;;4.90;2.20;;;;;;;2.97;100.00;97045.98;108499;1282;23383;-86
2024/01/27 01:24:14;;;;;;;4.30;2.00;;;;;;;2.96;100.00;97053.46;108314;1284;138293;-86
2024/01/27 01:27:44;;;;;;;7.50;2.50;;;;;;;2.94;100.00;97054.77;108427;1284;23302;-86
2024/01/27 01:31:02;;;;;;;5.60;1.80;;;;;;;2.92;100.00;97060.59;108162;1284;136948;-86
2024/01/27 01:34:30;;;;;;;5.10;2.20;;;;;;;2.91;100.00;97065.95;108317;1281;25249;-86
2024/01/27 01:38:00;;;;;;;6.40;2.60;;;;;;;2.90;100.00;97069.83;108446;1283;22653;-85
2024/01/27 01:41:30;;;;;;;8.40;3.90;;;;;;;2.89;100.00;97078.79;108332;1283;138273;-86
2024/01/27 01:44:59;;;;;;;12.60;2.70;;;;;;;2.87;100.00;97093.61;104267;1277;5391276;-86
2024/01/27 01:48:27;;;;;;;5.60;2.10;;;;;;;2.87;100.00;97080.96;108474;1276;138610;-86
2024/01/27 01:52:03;;;;;;;8.10;2.10;;;;;;;2.86;100.00;97076.98;108113;1289;22572;-85
2024/01/27 01:55:31;;;;;;;6.80;3.30;;;;;;;2.86;100.00;97077.67;108117;1289;22586;-86
2024/01/27 01:58:58;;;;;;;6.70;1.80;;;;;;;2.86;100.00;97075.77;108171;1286;137436;-86
2024/01/27 02:02:25;;;;;;;9.70;3.30;;;;;;;2.88;100.00;97080.27;108158;1288;22630;-86
2024/01/27 02:05:52;;;;;;;4.70;1.70;;;;;;;2.84;100.00;97072.80;108178;1281;138312;-86
2024/01/27 02:09:20;;;;;;;9.80;1.90;;;;;;;2.85;100.00;97080.15;108158;1288;22550;-86
2024/01/27 02:12:36;;;;;;;4.90;1.70;;;;;;;2.83;100.00;97080.44;108096;1288;138300;-86
2024/01/27 02:16:04;;;;;;;8.00;4.00;;;;;;;2.80;100.00;97093.00;108147;1280;23090;-84
2024/01/27 02:19:31;;;;;;;4.60;1.50;;;;;;;2.76;100.00;97088.36;108551;1283;22579;-85
2024/01/27 02:22:44;;;;;;;5.30;2.80;;;;;;;2.73;100.00;97092.14;108548;1276;24852;-86
2024/01/27 02:26:12;;;;;;;14.50;4.30;;;;;;;2.74;100.00;97091.62;108483;1284;23003;-87
2024/01/27 02:29:39;;;;;;;7.10;1.60;;;;;;;2.74;100.00;97084.92;108295;1276;139620;-86
2024/01/27 02:33:07;;;;;;;5.30;1.60;;;;;;;2.75;100.00;97084.31;108437;1278;22577;-86
2024/01/27 02:36:35;;;;;;;6.50;1.60;;;;;;;2.78;100.00;97090.62;108426;1284;138180;-86
2024/01/27 02:39:55;;;;;;;4.70;1.60;;;;;;;2.74;100.00;97090.41;108420;1284;22564;-86
2024/01/27 02:43:24;;;;;;;6.70;1.70;;;;;;;2.71;100.00;97093.48;108341;1273;137966;-86
2024/01/27 02:46:51;;;;;;;6.70;2.20;;;;;;;2.71;100.00;97082.38;108548;1278;23919;-86
2024/01/27 02:50:14;;;;;;;6.70;2.00;;;;;;;2.68;100.00;97082.23;108472;1276;25555;-86
2024/01/27 02:53:35;;;;;;;8.20;2.80;;;;;;;2.64;100.00;97084.14;108352;1284;138163;-87
2024/01/27 02:56:54;;;;;;;;;;;;;;;;;;;;;
2024/01/27 03:00:23;;;;;;;5.30;1.60;;;;;;;2.62;100.00;97075.21;108245;1284;138501;-86
2024/01/27 03:03:49;;;;;;;5.30;1.90;;;;;;;2.62;100.00;97079.85;108475;1283;22620;-87
2024/01/27 03:07:17;;;;;;;6.50;2.10;;;;;;;2.60;100.00;97076.52;108295;1284;138510;-87
2024/01/27 03:10:44;;;;;;;6.30;2.10;;;;;;;2.59;100.00;97091.30;108463;1277;22564;-87
2024/01/27 03:14:12;;;;;;;9.70;1.90;;;;;;;2.59;100.00;97091.18;108476;1277;22608;-86
2024/01/27 03:17:42;;;;;;;4.50;1.80;;;;;;;2.59;99.95;97100.89;108364;1260;22548;-87
2024/01/27 03:21:08;;;;;;;5.10;2.30;;;;;;;2.57;100.00;97101.88;108265;1284;22549;-87
2024/01/27 03:24:37;;;;;;;7.30;1.80;;;;;;;2.57;99.97;97098.29;108455;1275;138206;-87
2024/01/27 03:28:05;;;;;;;7.50;2.80;;;;;;;2.58;99.62;97104.11;108593;1275;22582;-87
2024/01/27 03:31:15;;;;;;;5.30;2.20;;;;;;;2.58;99.67;97104.08;108353;1275;137953;-86
2024/01/27 03:34:43;;;;;;;2.90;1.50;;;;;;;2.57;99.32;97107.86;108605;1277;22538;-86
2024/01/27 03:38:05;;;;;;;;;;;;;;;;;;;;;
2024/01/27 03:41:40;;;;;;;6.60;1.80;;;;;;;2.59;99.04;97106.92;108282;1275;138919;-86
2024/01/27 03:45:16;;;;;;;2.70;1.60;;;;;;;2.58;99.04;97107.79;108439;1283;22581;-87
2024/01/27 03:48:44;;;;;;;6.20;2.00;;;;;;;2.58;98.74;97112.48;108508;1277;137909;-87
2024/01/27 03:52:02;;;;;;;;;;;;;;;;;;;;;
2024/01/27 03:55:26;;;;;;;7.10;2.00;;;;;;;2.53;98.44;97122.56;108324;1275;138007;-86
2024/01/27 03:58:50;;;;;;;3.80;1.80;;;;;;;2.52;98.58;97126.25;108469;1283;22587;-86
2024/01/27 04:02:18;;;;;;;6.90;2.20;;;;;;;2.51;98.63;97119.69;108566;1275;24200;-87
2024/01/27 04:05:45;;;;;;;6.80;2.20;;;;;;;2.48;98.52;97124.35;108392;1278;138378;-87
2024/01/27 04:09:13;;;;;;;7.20;2.20;;;;;;;2.45;97.93;97130.21;108600;1283;22542;-87
2024/01/27 04:12:40;;;;;;;7.00;2.60;;;;;;;2.45;98.24;97133.41;108448;1283;137850;-87
2024/01/27 04:16:05;;;;;;;;;;;;;;;;;;;;;
2024/01/27 04:19:28;;;;;;;7.70;2.10;;;;;;;2.43;97.23;97150.52;108302;1278;136970;-87
2024/01/27 04:22:48;;;;;;;;;;;;;;;;;;;;;
2024/01/27 04:26:03;;;;;;;6.60;1.50;;;;;;;2.42;96.85;97156.70;108639;1278;23910;-87
2024/01/27 04:29:31;;;;;;;4.90;1.90;;;;;;;2.42;96.38;97165.28;109387;1277;22573;-86
2024/01/27 04:32:59;;;;;;;4.70;2.40;;;;;;;2.42;96.28;97168.55;108420;1282;25442;-86
2024/01/27 04:36:11;;;;;;;4.70;2.00;;;;;;;2.43;96.10;97174.98;108303;1283;138047;-87
2024/01/27 04:39:23;;;;;;;5.60;1.60;;;;;;;2.43;95.15;97182.64;108529;1275;23232;-87
2024/01/27 04:42:50;;;;;;;6.90;1.60;;;;;;;2.44;95.42;97171.31;108454;1277;137984;-87
2024/01/27 04:46:03;;;;;;;7.50;1.80;;;;;;;2.44;95.55;97182.77;108604;1275;22569;-87
2024/01/27 04:49:21;;;;;;;8.50;2.20;;;;;;;2.46;95.26;97181.09;108359;1283;138436;-86
2024/01/27 04:52:34;;;;;;;6.70;2.70;;;;;;;2.46;94.91;97181.63;108452;1278;22587;-86
2024/01/27 04:55:54;;;;;;;8.10;1.80;;;;;;;2.44;94.90;97189.96;108391;1282;138260;-86
2024/01/27 04:59:21;;;;;;;5.00;1.30;;;;;;;2.41;94.01;97198.54;108444;1262;22530;-85
2024/01/27 05:02:30;;;;;;;4.70;1.80;;;;;;;2.37;95.09;97196.74;108372;1275;22538;-86
2024/01/27 05:05:36;;;;;;;7.90;2.20;;;;;;;2.36;95.18;97205.56;108479;1280;138013;-86
2024/01/27 05:08:46;;;;;;;6.70;2.00;;;;;;;2.33;94.31;97209.34;108537;1283;22660;-86
2024/01/27 05:12:13;;;;;;;7.20;2.10;;;;;;;2.31;95.01;97211.92;108424;1283;137978;-86
2024/01/27 05:15:39;;;;;;;6.00;1.80;;;;;;;2.30;95.07;97206.71;108424;1277;24119;-85
2024/01/27 05:19:00;;;;;;;;;;;;;;;;;;;;;
2024/01/27 05:22:16;;;;;;;8.60;2.10;;;;;;;2.25;95.42;97221.94;108462;1275;22572;-86
2024/01/27 05:25:36;;;;;;;6.90;2.00;;;;;;;2.22;94.74;97220.05;108432;1278;137987;-87
2024/01/27 05:28:31;;;;;;;;;;;;;;;;;;;;;
2024/01/27 05:31:44;;;;;;;;;;;;;;;;;;;;;
2024/01/27 05:35:12;;;;;;;6.30;1.80;;;;;;;2.18;95.34;97227.75;108491;1276;22584;-85
2024/01/27 05:38:19;;;;;;;7.20;2.10;;;;;;;2.16;95.43;97229.95;108450;1280;22537;-86
2024/01/27 05:41:28;;;;;;;7.10;2.70;;;;;;;2.16;95.20;97236.75;108542;1283;22552;-86
2024/01/27 05:44:47;;;;;;;6.00;2.10;;;;;;;2.14;95.02;97230.05;108495;1282;23355;-85
2024/01/27 05:48:13;;;;;;;9.20;3.00;;;;;;;2.14;95.09;97232.96;108427;1282;138485;-86
2024/01/27 05:51:46;;;;;;;7.70;2.40;;;;;;;2.14;94.57;97234.38;108605;1282;22523;-85
2024/01/27 05:54:45;;;;;;;;;;;;;;;;;;;;;
2024/01/27 05:58:05;;;;;;;4.50;1.90;;;;;;;2.14;93.97;97234.49;108572;1275;23013;-86
2024/01/27 06:01:14;;;;;;;;;;;;;;;;;;;;;
2024/01/27 06:04:23;;;;;;;7.80;2.50;;;;;;;2.09;93.58;97231.39;108550;1282;22692;-85
2024/01/27 06:07:18;;;;;;;;;;;;;;;;;;;;;
2024/01/27 06:10:39;;;;;;;6.10;1.90;;;;;;;2.09;94.24;97237.42;108354;1283;22597;-86
2024/01/27 06:13:49;;;;;;;;;;;;;;;;;;;;;
2024/01/27 06:17:26;;;;;;;8.50;2.20;;;;;;;2.07;93.62;97244.38;108489;1283;22561;-86
2024/01/27 06:20:49;;;;;;;11.80;2.60;;;;;;;2.06;93.28;97254.70;108404;1282;22559;-85
2024/01/27 06:24:17;;;;;;;8.70;2.60;;;;;;;2.07;93.01;97265.73;108361;1278;138156;-87
2024/01/27 06:27:29;;;;;;;9.90;2.80;;;;;;;2.06;92.76;97266.81;108403;1282;22534;-86
2024/01/27 06:30:56;;;;;;;6.20;2.10;;;;;;;2.06;91.92;97270.45;108338;1279;138092;-86
2024/01/27 06:34:13;;;;;;;12.30;5.00;;;;;;;2.05;91.93;97270.48;108359;1282;22662;-86
2024/01/27 06:37:10;;;;;;;;;;;;;;;;;;;;;
2024/01/27 06:40:14;;;;;;;;;;;;;;;;;;;;;
2024/01/27 06:43:25;;;;;;;8.70;2.30;;;;;;;2.03;91.70;97278.20;108311;1278;138112;-85
2024/01/27 06:46:38;;;;;;;7.30;2.40;;;;;;;2.02;91.08;97273.25;108563;1282;22531;-86
2024/01/27 06:49:22;;;;;;;;;;;;;;;2.03;91.53;97273.91;108448;1278;137732;-85
2024/01/27 06:52:34;;;;;;;8.60;2.50;;;;;;;2.02;91.74;97278.25;108437;1282;22629;-86
2024/01/27 06:55:52;;;;;;;9.80;2.80;;;;;;;2.01;91.68;97288.69;108390;1278;138176;-86
2024/01/27 06:59:11;;;;;;;7.50;2.90;;;;;;;2.01;91.48;97294.08;108485;1278;22539;-86
2024/01/27 07:02:31;;;;;;;8.30;2.80;;;;;;;2.00;91.31;97295.45;108543;1283;23119;-86
2024/01/27 07:05:44;;;;;;;10.50;3.90;;;;;;;2.00;91.04;97303.34;108634;1275;24904;-86
2024/01/27 07:09:10;;;;;;;7.90;2.70;;;;;;;2.01;91.44;97310.60;108573;1280;22523;-86
2024/01/27 07:12:29;;;;;;;6.80;2.90;;;;;;;2.01;89.99;97313.36;108361;1282;138971;-86
2024/01/27 07:15:57;;;;;;;5.80;3.00;;;;;;;1.98;90.93;97321.21;108549;1278;22523;-86
2024/01/27 07:18:57;;;;;;;;;;;;;;;;;;;;;
2024/01/27 07:22:18;;;;;;;;;;;;;;;;;;;;;
2024/01/27 07:25:21;;;;;;;6.00;3.10;;;;;;;1.97;90.27;97320.66;108356;1282;137984;-86
2024/01/27 07:28:06;;;;;;;9.20;2.10;;;;;;;1.97;90.17;97322.50;108499;1282;24197;-86
2024/01/27 07:30:32;;;;;;;10.30;3.00;;;;;;;1.96;90.25;97329.23;108298;1282;138262;-86
2024/01/27 07:32:59;;;;;;;5.40;2.40;;;;;;;1.96;89.88;97329.98;108376;1282;22693;-86
2024/01/27 07:35:32;;;;;;;10.70;3.60;;;;;;;1.96;89.98;97326.34;108338;1281;138016;-86
2024/01/27 07:37:59;;;;;;;8.40;2.70;;;;;;;1.96;89.58;97330.63;108413;1275;22581;-86
2024/01/27 07:40:26;;;;;;;5.10;2.50;;;;;;;1.95;88.69;97327.95;108391;1282;24915;-86
2024/01/27 07:42:53;;;;;;;13.40;3.60;;;;;;;1.94;88.67;97337.06;108309;1282;137799;-86
2024/01/27 07:45:19;;;;;;;11.50;3.30;;;;;;;1.94;88.33;97341.03;108427;1282;22532;-85
2024/01/27 07:47:46;;;;;;;10.40;3.30;;;;;;;1.93;88.44;97348.04;108277;1284;138413;-86
2024/01/27 07:50:17;;;;;;;8.20;3.60;;;;;;;1.94;88.62;97347.14;108339;1275;22527;-86
2024/01/27 07:52:50;;;;;;;6.50;2.80;;;;;;;1.95;87.79;97347.95;108440;1275;22531;-86
2024/01/27 07:55:22;;;;;;;10.20;2.70;;;;;;;1.94;87.68;97346.60;108293;1282;137848;-86
2024/01/27 07:57:49;;;;;;;12.80;3.00;;;;;;;1.93;88.01;97340.58;108467;1275;22529;-85
2024/01/27 08:00:33;;;;;;;10.60;2.50;;;;;;;1.91;88.15;97343.73;108322;1282;138031;-86
2024/01/27 08:03:17;;;;;;;;;;;;;;;;;;;;;
2024/01/27 08:06:02;;;;;;;10.10;3.20;;;;;;;1.90;87.81;97334.46;108347;1283;138840;-86
2024/01/27 08:08:36;;;;;;;6.70;3.90;;;;;;;1.89;88.68;97341.30;108409;1283;22569;-86
2024/01/27 08:11:06;;;;;;;9.50;3.10;;;;;;;1.89;88.27;97334.83;108323;1282;22533;-85
2024/01/27 08:13:35;;;;;;;7.00;2.40;;;;;;;1.90;87.88;97341.27;108268;1283;137610;-85
2024/01/27 08:16:05;;;;;;;7.50;2.60;;;;;;;1.89;87.19;97342.89;108420;1282;25242;-86
2024/01/27 08:18:32;;;;;;;10.00;4.20;;;;;;;1.90;87.25;97338.59;108277;1284;139041;-86
2024/01/27 08:21:08;;;;;;;9.20;3.30;;;;;;;1.89;87.79;97345.27;108320;1283;22573;-86
2024/01/27 08:23:41;;;;;;;12.70;3.50;;;;;;;1.90;87.60;97344.17;108280;1284;137954;-85
2024/01/27 08:26:26;;;;;;;;;;;;;;;;;;;;;
2024/01/27 08:28:58;;;;;;;11.10;5.20;;;;;;;1.89;87.90;97337.73;108421;1277;24372;-85
2024/01/27 08:31:25;;;;;;;7.10;2.60;;;;;;;1.89;87.67;97339.30;108258;1279;137957;-86
2024/01/27 08:33:54;;;;;;;9.90;4.00;;;;;;;1.90;87.75;97337.86;108311;1283;24346;-86
2024/01/27 08:36:21;;;;;;;5.70;2.60;;;;;;;1.91;87.74;97333.65;108331;1278;138836;-86
2024/01/27 08:38:48;;;;;;;8.30;3.00;;;;;;;1.93;87.71;97340.07;108449;1283;23145;-85
2024/01/27 08:41:20;;;;;;;7.70;3.10;;;;;;;1.93;87.17;97342.42;108313;1283;138126;-85
2024/01/27 08:43:46;;;;;;;6.70;2.80;;;;;;;1.93;87.22;97345.15;108303;1283;22607;-86
2024/01/27 08:46:21;;;;;;;10.90;3.20;;;;;;;1.94;87.22;97344.38;108451;1283;22550;-85
2024/01/27 08:48:58;;;;;;;9.60;2.90;;;;;;;1.94;86.22;97348.84;108316;1283;138446;-85
2024/01/27 08:51:25;;;;;;;10.20;3.90;;;;;;;1.94;86.43;97350.93;108392;1282;22617;-86
2024/01/27 08:53:52;;;;;;;11.30;5.50;;;;;;;1.93;87.07;97350.92;108279;1284;138328;-86
2024/01/27 08:56:21;;;;;;;11.00;3.40;;;;;;;1.94;86.98;97354.16;108364;1283;22583;-86
2024/01/27 08:58:54;;;;;;;7.90;3.20;;;;;;;1.94;86.62;97349.70;108418;1280;22573;-86
2024/01/27 09:01:24;;;;;;;7.10;3.30;;;;;;;1.94;86.39;97338.05;108342;1283;138294;-86
2024/01/27 09:03:57;;;;;;;6.80;2.80;;;;;;;1.94;86.80;97338.40;108450;1282;22527;-86
2024/01/27 09:06:40;;;;;;;7.40;2.90;;;;;;;1.94;86.00;97341.50;108344;1275;138099;-86
2024/01/27 09:09:12;;;;;;;7.70;3.00;;;;;;;1.94;85.47;97346.31;108458;1283;25650;-86
2024/01/27 09:11:41;;;;;;;10.00;4.60;;;;;;;1.93;85.56;97344.66;108302;1283;138787;-86
2024/01/27 09:14:08;;;;;;;10.50;3.80;;;;;;;1.93;85.27;97345.49;108364;1283;24891;-86
2024/01/27 09:16:40;;;;;;;7.20;3.00;;;;;;;1.92;85.25;97351.23;108369;1281;22579;-86
2024/01/27 09:19:08;;;;;;;7.50;4.00;;;;;;;1.91;85.26;97345.79;108305;1283;138693;-86
2024/01/27 09:21:36;;;;;;;9.50;4.20;;;;;;;1.91;85.01;97349.75;108396;1277;22737;-86
2024/01/27 09:24:07;;;;;;;8.00;2.90;;;;;;;1.91;85.84;97344.98;108186;1280;138499;-86
2024/01/27 09:26:34;;;;;;;10.80;2.90;;;;;;;1.90;85.55;97351.52;108287;1268;26671;-86
2024/01/27 09:29:01;;;;;;;9.60;3.20;;;;;;;1.89;85.71;97354.67;108302;1284;22594;-85
2024/01/27 09:31:28;;;;;;;7.40;2.70;;;;;;;1.88;86.37;97356.26;108126;1284;137926;-86
2024/01/27 09:33:55;;;;;;;10.50;3.60;;;;;;;1.86;86.44;97365.79;108284;1284;22572;-86
2024/01/27 09:36:36;;;;;;;12.80;3.40;;;;;;;1.83;87.38;97358.19;108140;1284;138005;-86
2024/01/27 09:39:03;;;;;;;7.80;2.80;;;;;;;1.77;88.16;97367.20;108314;1284;22576;-86
2024/01/27 09:41:36;;;;;;;8.60;3.30;;;;;;;1.74;88.79;97365.55;108232;1283;138003;-86
2024/01/27 09:44:09;;;;;;;9.60;3.00;;;;;;;1.70;89.46;97366.54;108376;1284;22830;-86
2024/01/27 09:46:35;;;;;;;13.10;4.70;;;;;;;1.66;90.09;97375.56;108311;1284;22530;-86
2024/01/27 09:49:12;;;;;;;9.40;3.50;;;;;;;1.61;90.41;97368.70;108239;1284;138770;-86
2024/01/27 09:51:57;;;;;;;;;;;;;;;;;;;;;
2024/01/27 09:54:24;;;;;;;6.50;3.30;;;;;;;1.53;91.73;97372.30;108308;1260;138592;-85
2024/01/27 09:57:00;;;;;;;12.10;4.20;;;;;;;1.49;92.27;97370.16;108406;1284;22526;-86
2024/01/27 09:59:29;;;;;;;7.80;3.10;;;;;;;1.47;92.84;97376.80;108222;1284;138775;-85
2024/01/27 10:01:57;;;;;;;8.40;4.10;;;;;;;1.45;93.97;97383.21;108399;1284;22556;-85
2024/01/27 10:04:30;;;;;;;10.40;3.60;;;;;;;1.41;95.65;97377.52;108382;1277;24002;-86
2024/01/27 10:06:58;;;;;;;11.70;3.70;;;;;;;1.30;97.05;97379.45;108227;1284;138113;-86
2024/01/27 10:09:24;;;;;;;8.40;3.50;;;;;;;1.20;96.94;97375.30;108296;1283;23385;-86
2024/01/27 10:11:51;;;;;;;7.10;3.50;;;;;;;1.14;97.21;97373.66;108182;1284;138813;-86
2024/01/27 10:14:21;;;;;;;11.60;4.80;;;;;;;1.12;98.69;97363.55;108310;1284;24024;-86
2024/01/27 10:16:53;;;;;;;10.30;3.70;;;;;;;1.06;99.48;97363.64;108272;1284;22647;-85
2024/01/27 10:19:34;;;;;;;9.30;5.00;;;;;;;1.00;99.52;97362.77;108275;1281;138345;-86
2024/01/27 10:22:14;;;;;;;11.50;4.00;;;;;;;0.97;100.00;97365.04;108330;1284;22537;-86
2024/01/27 10:24:53;;;;;;;8.60;3.60;;;;;;;0.94;100.00;97358.95;108327;1283;138874;-85
2024/01/27 10:27:25;;;;;;;9.80;4.00;;;;;;;0.92;100.00;97356.17;108525;1283;22572;-86
2024/01/27 10:30:00;;;;;;;16.30;5.10;;;;;;;0.92;100.00;97346.05;108300;1283;138691;-86
2024/01/27 10:32:26;;;;;;;9.00;3.90;;;;;;;0.92;100.00;97338.56;108382;1283;22654;-86
2024/01/27 10:35:14;;;;;;;10.20;4.40;;;;;;;0.92;100.00;97336.52;108425;1283;23482;-85
2024/01/27 10:37:46;;;;;;;10.70;4.70;;;;;;;0.92;100.00;97343.70;108418;1283;22583;-86
2024/01/27 10:40:15;;;;;;;13.90;4.50;;;;;;;0.91;100.00;97339.80;108295;1270;22613;-86
2024/01/27 10:42:50;;;;;;;9.60;4.00;;;;;;;0.93;100.00;97343.81;108183;1283;138392;-86
2024/01/27 10:45:20;;;;;;;10.30;4.90;;;;;;;0.93;100.00;97346.36;108420;1283;22577;-86
2024/01/27 10:47:49;;;;;;;11.50;4.80;;;;;;;0.94;100.00;97347.32;108353;1283;138420;-86
2024/01/27 10:50:19;;;;;;;10.20;4.10;;;;;;;0.95;100.00;97345.52;108391;1283;23307;-86
2024/01/27 10:52:52;;;;;;;8.10;3.50;;;;;;;0.96;100.00;97348.73;108409;1283;22570;-86
2024/01/27 10:55:23;;;;;;;12.40;5.10;;;;;;;0.96;100.00;97346.98;108313;1283;138386;-86
2024/01/27 10:57:59;;;;;;;11.00;4.00;;;;;;;0.97;100.00;97343.93;108332;1282;22537;-86
2024/01/27 11:00:31;;;;;;;9.70;5.00;;;;;;;0.99;100.00;97345.31;108293;1277;138157;-86
2024/01/27 11:02:59;;;;;;;13.70;5.60;;;;;;;0.99;100.00;97345.30;108517;1281;22561;-86
2024/01/27 11:05:31;;;;;;;11.80;4.50;;;;;;;1.00;100.00;97344.73;108300;1276;138451;-86
2024/01/27 11:08:01;;;;;;;;;;;;;;;1.01;100.00;97341.11;108480;1282;22514;-86
2024/01/27 11:10:30;;;;;;;8.40;3.80;;;;;;;1.01;100.00;97344.86;108379;1283;22653;-86
2024/01/27 11:13:00;;;;;;;9.60;5.10;;;;;;;1.01;100.00;97343.95;108325;1283;138553;-86
2024/01/27 11:15:30;;;;;;;10.70;4.00;;;;;;;1.03;100.00;97347.41;108450;1280;22701;-86
2024/01/27 11:18:05;;;;;;;14.10;4.40;;;;;;;1.05;100.00;97354.98;108343;1282;138262;-86
2024/01/27 11:20:34;;;;;;;13.40;5.40;;;;;;;1.07;100.00;97355.35;108438;1283;22592;-86
2024/01/27 11:23:16;;;;;;;12.60;5.20;;;;;;;1.10;100.00;97360.63;108404;1283;22575;-86
2024/01/27 11:25:43;;;;;;;9.30;4.30;;;;;;;1.12;100.00;97357.40;108277;1283;22622;-86
2024/01/27 11:28:14;;;;;;;11.50;4.40;;;;;;;1.13;100.00;97353.04;108260;1283;22540;-85
2024/01/27 11:30:47;;;;;;;10.60;5.00;;;;;;;1.14;100.00;97360.53;108271;1283;138731;-86
2024/01/27 11:33:17;;;;;;;13.20;3.80;;;;;;;1.14;100.00;97364.96;108362;1283;25547;-86
2024/01/27 14:56:34;;;;;;;15.60;6.60;;;;;;;1.02;100.00;97538.61;108115;1279;138544;-83
2024/01/27 14:59:26;;;;;;;17.00;8.50;;;;;;;1.02;100.00;97538.73;108252;1285;22523;-84
2024/01/27 15:02:30;;;;;;;;;;;;;;;;;;;;;
2024/01/27 15:05:35;;;;;;;;;;;;;;;;;;;;;
2024/01/27 15:09:01;;;;;;;16.50;7.50;;;;;;;1.12;100.00;97554.11;108184;1285;138388;-84
2024/01/27 15:11:59;;;;;;;15.30;7.60;;;;;;;1.16;100.00;97558.04;108402;1285;22559;-83
2024/01/27 15:14:57;;;;;;;15.50;7.90;;;;;;;1.19;100.00;97566.70;108202;1284;138744;-84
2024/01/27 15:18:01;;;;;;;;;;;;;;;;;;;;;
2024/01/27 15:21:09;;;;;;;;;;;;;;;;;;;;;
2024/01/27 15:24:04;;;;;;;;;;;;;;;;;;;;;
2024/01/27 15:26:53;;;;;;;14.00;8.30;;;;;;;1.29;100.00;97583.31;108286;1285;137934;-84
2024/01/27 15:29:30;;;;;;;33.70;16.50;;;;;;;1.31;100.00;97588.36;108420;1283;23309;-85
2024/01/27 15:32:31;;;;;;;;;;;;;;;;;;;;;
2024/01/27 15:35:32;;;;;;;190.00;73.30;;;;;;;1.34;100.00;97596.01;108378;1285;24222;-84
2024/01/27 15:38:04;;;;;;;56.60;24.00;;;;;;;1.36;100.00;97597.89;108314;1285;138459;-84
2024/01/27 15:40:53;;;;;;;53.20;25.90;;;;;;;1.38;100.00;97605.48;108220;1285;23304;-85
2024/01/27 15:43:34;;;;;;;31.80;21.00;;;;;;;1.40;100.00;97613.52;108203;1263;138535;-84
2024/01/27 15:46:24;;;;;;;23.90;11.60;;;;;;;1.40;100.00;97618.34;108334;1285;22593;-84
2024/01/27 15:49:16;;;;;;;23.40;12.50;;;;;;;1.42;100.00;97621.97;108277;1285;138922;-84
2024/01/27 15:51:51;;;;;;;13.50;7.40;;;;;;;1.44;100.00;97623.88;108114;1289;22635;-84
2024/01/27 15:54:28;;;;;;;21.10;10.00;;;;;;;1.45;100.00;97625.86;107971;1289;138428;-84
2024/01/27 15:57:03;;;;;;;19.60;9.40;;;;;;;1.46;100.00;97627.01;108072;1289;22519;-84
2024/01/27 15:59:30;;;;;;;16.10;7.90;;;;;;;1.43;100.00;97633.69;108159;1283;24266;-84
2024/01/27 16:01:59;;;;;;;22.70;9.10;;;;;;;1.42;100.00;97630.65;107819;1288;138694;-84
2024/01/27 16:04:29;;;;;;;22.20;10.60;;;;;;;1.39;100.00;97637.84;108125;1283;25729;-85
2024/01/27 16:06:59;;;;;;;16.70;8.90;;;;;;;1.40;100.00;97640.67;108100;1286;138652;-85
2024/01/27 16:09:28;;;;;;;18.10;9.30;;;;;;;1.42;100.00;97649.63;108131;1289;22582;-84
2024/01/27 16:12:00;;;;;;;18.40;7.80;;;;;;;1.41;100.00;97650.88;108091;1287;22580;-84
2024/01/27 16:14:27;;;;;;;20.90;10.70;;;;;;;1.42;100.00;97654.08;107999;1289;138711;-84
2024/01/27 16:17:00;;;;;;;27.30;12.90;;;;;;;1.43;100.00;97659.13;108106;1289;22576;-85
2024/01/27 16:19:28;;;;;;;26.40;13.10;;;;;;;1.45;100.00;97662.91;108001;1288;137441;-84
2024/01/27 16:21:56;;;;;;;20.20;10.50;;;;;;;1.47;100.00;97672.52;108106;1277;22836;-84
2024/01/27 16:24:58;;;;;;;;;;;;;;;;;;;;;
2024/01/27 16:27:44;;;;;;;27.60;12.70;;;;;;;1.52;100.00;97668.15;108330;1285;22557;-85
2024/01/27 16:30:15;;;;;;;24.30;11.90;;;;;;;1.51;100.00;97675.17;108142;1285;138540;-84
2024/01/27 16:32:42;;;;;;;29.70;14.30;;;;;;;1.52;100.00;97671.91;108240;1286;24400;-85
2024/01/27 16:35:16;;;;;;;19.20;12.40;;;;;;;1.53;100.00;97673.19;108312;1285;22565;-85
2024/01/27 16:37:54;;;;;;;23.00;13.10;;;;;;;1.55;100.00;97677.34;108203;1285;138517;-85
2024/01/27 16:40:32;;;;;;;17.50;10.00;;;;;;;1.54;100.00;97682.52;108204;1284;22533;-84
2024/01/27 16:43:07;;;;;;;19.20;12.00;;;;;;;1.54;100.00;97685.95;108232;1278;138440;-85
2024/01/27 16:45:34;;;;;;;21.50;10.40;;;;;;;1.50;100.00;97690.45;108234;1285;22580;-85
2024/01/27 16:48:02;;;;;;;21.30;11.10;;;;;;;1.48;100.00;97690.03;108264;1283;22597;-84
2024/01/27 16:50:32;;;;;;;19.60;10.00;;;;;;;1.48;100.00;97688.67;108211;1285;138309;-84
2024/01/27 16:52:59;;;;;;;15.80;10.30;;;;;;;1.49;100.00;97694.97;108224;1286;22588;-85
2024/01/27 16:55:37;;;;;;;20.50;10.10;;;;;;;1.51;100.00;97701.52;108117;1283;138467;-84
2024/01/27 16:58:14;;;;;;;24.20;10.90;;;;;;;1.51;100.00;97703.05;108169;1281;24945;-84
2024/01/27 17:01:03;;;;;;;32.20;14.90;;;;;;;1.53;100.00;97710.09;108261;1285;139124;-84
2024/01/27 17:03:38;;;;;;;21.50;10.70;;;;;;;1.56;100.00;97715.19;108267;1279;22570;-84
2024/01/27 17:06:08;;;;;;;19.40;9.90;;;;;;;1.59;100.00;97720.61;108312;1280;22559;-84
2024/01/27 17:08:45;;;;;;;27.00;12.80;;;;;;;1.62;100.00;97723.71;108235;1285;22541;-84
2024/01/27 17:11:16;;;;;;;34.20;15.40;;;;;;;1.65;100.00;97729.19;108268;1285;23027;-85
2024/01/27 17:13:48;;;;;;;36.80;18.20;;;;;;;1.65;100.00;97731.04;108156;1285;138444;-85
2024/01/27 17:16:18;;;;;;;26.00;13.60;;;;;;;1.67;100.00;97736.35;108257;1283;22549;-84
2024/01/27 17:18:46;;;;;;;28.30;13.50;;;;;;;1.70;100.00;97740.27;108127;1286;139192;-85
2024/01/27 17:21:19;;;;;;;31.20;14.80;;;;;;;1.71;100.00;97741.91;108237;1285;22587;-84
2024/01/27 17:23:51;;;;;;;31.20;14.90;;;;;;;1.73;100.00;97746.27;108397;1285;22658;-84
2024/01/27 17:26:21;;;;;;;39.50;16.00;;;;;;;1.74;100.00;97748.88;108197;1284;138799;-84
2024/01/27 17:28:53;;;;;;;22.30;11.10;;;;;;;1.74;100.00;97752.33;108294;1277;22533;-85
2024/01/27 17:31:25;;;;;;;26.80;11.40;;;;;;;1.76;100.00;97754.08;108136;1285;138567;-84
2024/01/27 17:33:58;;;;;;;26.00;11.30;;;;;;;1.77;100.00;97754.86;108231;1285;22640;-84
2024/01/27 17:36:41;;;;;;;18.50;8.40;;;;;;;1.74;100.00;97759.80;108069;1285;139163;-84
2024/01/27 17:39:16;;;;;;;21.80;9.70;;;;;;;1.73;100.00;97761.95;108323;1285;22645;-85